createdAt,value
2018-12-25T00:01:17.645Z,66.87
2018-12-25T00:04:06.489Z,66.62
2018-12-25T00:06:55.329Z,66.59
2018-12-25T00:09:44.160Z,66.40
2018-12-25T00:12:33.006Z,66.33
2018-12-25T00:15:21.850Z,66.52
2018-12-25T00:18:10.743Z,66.60
2018-12-25T00:20:59.559Z,66.42
2018-12-25T00:23:48.401Z,65.96
2018-12-25T00:26:37.330Z,65.67
2018-12-25T00:29:26.169Z,65.73
2018-12-25T00:32:15.113Z,65.80
2018-12-25T00:35:04.000Z,66.19
2018-12-25T00:37:45.854Z,66.28
2018-12-25T00:40:34.651Z,66.12
2018-12-25T00:43:23.506Z,66.17
2018-12-25T00:46:12.338Z,66.06
2018-12-25T00:49:01.213Z,66.08
2018-12-25T00:51:50.042Z,65.83
2018-12-25T00:54:38.927Z,65.68
2018-12-25T00:57:27.708Z,65.66
2018-12-25T01:00:16.637Z,65.78
2018-12-25T01:03:05.466Z,65.63
2018-12-25T01:05:54.302Z,65.65
2018-12-25T01:08:43.184Z,65.62
2018-12-25T01:11:32.006Z,65.51
2018-12-25T01:14:20.859Z,65.75
2018-12-25T01:17:09.668Z,65.78
2018-12-25T01:19:58.519Z,65.79
2018-12-25T01:22:47.317Z,65.71
2018-12-25T01:25:36.236Z,65.92
2018-12-25T01:28:25.216Z,65.81
2018-12-25T01:31:07.278Z,65.85
2018-12-25T01:33:56.091Z,66.30
2018-12-25T01:36:44.933Z,66.22
2018-12-25T01:39:14.414Z,66.35
2018-12-25T01:42:03.291Z,66.42
2018-12-25T01:44:52.139Z,66.35
2018-12-25T01:47:40.965Z,65.93
2018-12-25T01:50:29.874Z,66.26
2018-12-25T01:53:18.688Z,66.05
2018-12-25T01:56:07.586Z,65.81
2018-12-25T01:58:56.448Z,65.84
2018-12-25T02:01:45.234Z,65.49
2018-12-25T02:04:25.054Z,65.54
2018-12-25T02:07:13.851Z,66.00
2018-12-25T02:10:02.707Z,65.95
2018-12-25T02:12:51.575Z,65.64
2018-12-25T02:15:40.414Z,65.40
2018-12-25T02:18:29.273Z,65.58
2018-12-25T02:21:18.100Z,66.06
2018-12-25T02:23:47.593Z,65.73
2018-12-25T02:26:36.390Z,65.69
2018-12-25T02:29:25.243Z,65.77
2018-12-25T02:32:07.037Z,65.83
2018-12-25T02:34:48.315Z,65.60
2018-12-25T02:37:37.104Z,65.49
2018-12-25T02:40:25.972Z,65.70
2018-12-25T02:43:14.796Z,65.67
2018-12-25T02:46:03.693Z,65.92
2018-12-25T02:48:52.492Z,65.45
2018-12-25T02:51:41.331Z,65.59
2018-12-25T02:54:30.144Z,65.64
2018-12-25T02:57:18.987Z,65.74
2018-12-25T03:00:08.455Z,65.83
2018-12-25T03:02:57.295Z,65.20
2018-12-25T03:05:46.136Z,65.61
2018-12-25T03:08:34.942Z,65.77
2018-12-25T03:11:23.797Z,65.60
2018-12-25T03:13:53.243Z,65.63
2018-12-25T03:16:42.092Z,65.36
2018-12-25T03:19:30.955Z,65.36
2018-12-25T03:22:19.862Z,65.27
2018-12-25T03:25:08.690Z,65.44
2018-12-25T03:27:57.536Z,65.38
2018-12-25T03:30:46.376Z,65.23
2018-12-25T03:33:26.242Z,65.54
2018-12-25T03:36:15.108Z,65.32
2018-12-25T03:39:24.638Z,65.25
2018-12-25T03:42:13.539Z,65.20
2018-12-25T03:45:02.335Z,65.29
2018-12-25T03:47:51.171Z,65.36
2018-12-25T03:50:39.969Z,65.35
2018-12-25T03:53:28.807Z,65.27
2018-12-25T03:56:17.602Z,65.52
2018-12-25T03:59:06.452Z,65.57
2018-12-25T04:01:55.262Z,65.26
2018-12-25T04:04:44.169Z,65.52
2018-12-25T04:07:32.973Z,65.33
2018-12-25T04:10:21.784Z,65.30
2018-12-25T04:13:10.584Z,65.26
2018-12-25T04:15:59.456Z,65.24
2018-12-25T04:18:48.271Z,65.25
2018-12-25T04:21:37.100Z,65.17
2018-12-25T04:24:25.898Z,64.97
2018-12-25T04:27:14.743Z,65.01
2018-12-25T04:30:03.704Z,65.33
2018-12-25T04:32:52.541Z,64.71
2018-12-25T04:35:34.535Z,64.58
2018-12-25T04:38:23.405Z,64.83
2018-12-25T04:41:12.236Z,65.30
2018-12-25T04:44:01.030Z,65.43
2018-12-25T04:46:49.861Z,65.56
2018-12-25T04:49:38.674Z,65.57
2018-12-25T04:52:27.504Z,65.43
2018-12-25T04:55:08.975Z,65.09
2018-12-25T04:57:57.809Z,65.47
2018-12-25T05:00:46.652Z,65.61
2018-12-25T05:03:35.500Z,65.52
2018-12-25T05:06:24.298Z,65.48
2018-12-25T05:09:13.139Z,65.40
2018-12-25T05:12:01.999Z,65.57
2018-12-25T05:14:51.058Z,65.45
2018-12-25T05:17:39.921Z,64.95
2018-12-25T05:20:28.724Z,64.95
2018-12-25T05:23:17.565Z,64.80
2018-12-25T05:26:06.407Z,64.99
2018-12-25T05:28:55.307Z,65.41
2018-12-25T05:31:44.140Z,65.30
2018-12-25T05:34:32.974Z,65.56
2018-12-25T05:37:21.769Z,65.29
2018-12-25T05:40:03.935Z,65.69
2018-12-25T05:42:52.739Z,65.88
2018-12-25T05:45:41.586Z,66.02
2018-12-25T05:48:30.432Z,65.53
2018-12-25T05:51:19.300Z,65.23
2018-12-25T05:54:08.222Z,65.59
2018-12-25T05:56:57.053Z,65.81
2018-12-25T05:59:45.891Z,65.82
2018-12-25T06:02:34.732Z,65.85
2018-12-25T06:05:23.524Z,65.50
2018-12-25T06:08:12.377Z,65.83
2018-12-25T06:11:01.226Z,65.62
2018-12-25T06:13:50.082Z,65.63
2018-12-25T06:16:38.901Z,65.70
2018-12-25T06:19:27.712Z,65.83
2018-12-25T06:22:16.583Z,65.85
2018-12-25T06:25:05.661Z,66.08
2018-12-25T06:27:54.506Z,66.00
2018-12-25T06:30:43.332Z,66.05
2018-12-25T06:33:32.169Z,65.85
2018-12-25T06:36:20.989Z,65.90
2018-12-25T06:39:10.052Z,65.88
2018-12-25T06:41:58.897Z,65.94
2018-12-25T06:44:47.715Z,65.99
2018-12-25T06:47:36.559Z,65.90
2018-12-25T06:50:25.417Z,65.81
2018-12-25T06:53:14.265Z,66.00
2018-12-25T06:56:03.941Z,65.53
2018-12-25T06:58:52.793Z,65.29
2018-12-25T07:01:41.601Z,65.56
2018-12-25T07:04:30.451Z,65.89
2018-12-25T07:07:19.294Z,65.55
2018-12-25T07:10:08.141Z,65.68
2018-12-25T07:12:56.940Z,65.52
2018-12-25T07:15:45.814Z,65.81
2018-12-25T07:18:34.621Z,65.77
2018-12-25T07:21:23.449Z,65.86
2018-12-25T07:24:12.261Z,65.58
2018-12-25T07:27:01.133Z,65.90
2018-12-25T07:29:42.416Z,65.98
2018-12-25T07:32:31.253Z,65.91
2018-12-25T07:35:20.098Z,65.74
2018-12-25T07:38:08.933Z,65.73
2018-12-25T07:40:57.788Z,65.74
2018-12-25T07:43:39.913Z,65.33
2018-12-25T07:46:28.762Z,65.63
2018-12-25T07:49:17.576Z,65.70
2018-12-25T07:52:06.384Z,65.64
2018-12-25T07:54:55.190Z,65.73
2018-12-25T07:57:44.022Z,65.43
2018-12-25T08:00:32.870Z,65.48
2018-12-25T08:03:21.668Z,65.68
2018-12-25T08:06:10.496Z,65.57
2018-12-25T08:08:59.293Z,65.49
2018-12-25T08:11:48.140Z,65.57
2018-12-25T08:14:36.924Z,65.51
2018-12-25T08:17:25.424Z,65.77
2018-12-25T08:20:14.295Z,65.82
2018-12-25T08:23:15.237Z,65.95
2018-12-25T08:25:53.715Z,65.72
2018-12-25T08:28:42.531Z,65.76
2018-12-25T08:31:31.380Z,65.65
2018-12-25T08:34:13.467Z,65.41
2018-12-25T08:37:02.306Z,65.68
2018-12-25T08:39:51.189Z,65.68
2018-12-25T08:42:39.993Z,65.84
2018-12-25T08:45:28.963Z,65.15
2018-12-25T08:47:58.552Z,65.78
2018-12-25T08:50:47.070Z,66.15
2018-12-25T08:53:28.690Z,66.27
2018-12-25T08:56:17.531Z,66.00
2018-12-25T08:59:06.432Z,66.02
2018-12-25T09:01:55.271Z,66.18
2018-12-25T09:04:44.073Z,66.03
2018-12-25T09:07:32.977Z,65.98
2018-12-25T09:10:21.837Z,65.83
2018-12-25T09:13:10.642Z,65.54
2018-12-25T09:15:59.485Z,65.48
2018-12-25T09:18:48.293Z,65.28
2018-12-25T09:21:37.231Z,65.75
2018-12-25T09:24:06.683Z,65.70
2018-12-25T09:26:55.602Z,65.30
2018-12-25T09:29:44.465Z,65.56
2018-12-25T09:32:33.331Z,65.54
2018-12-25T09:35:22.239Z,65.70
2018-12-25T09:38:11.082Z,65.06
2018-12-25T09:40:52.856Z,64.75
2018-12-25T09:43:41.761Z,65.06
2018-12-25T09:46:30.607Z,64.91
2018-12-25T09:49:19.788Z,64.51
2018-12-25T09:52:08.643Z,63.33
2018-12-25T09:54:57.449Z,63.33
2018-12-25T09:57:46.280Z,63.53
2018-12-25T10:00:35.160Z,63.82
2018-12-25T10:03:23.984Z,63.91
2018-12-25T10:06:12.829Z,63.99
2018-12-25T10:08:42.350Z,62.28
2018-12-25T10:11:31.147Z,62.45
2018-12-25T10:14:19.993Z,62.38
2018-12-25T10:17:08.790Z,62.19
2018-12-25T10:19:57.723Z,61.91
2018-12-25T10:22:37.495Z,62.13
2018-12-25T10:25:26.335Z,61.83
2018-12-25T10:28:15.172Z,61.24
2018-12-25T10:31:04.022Z,61.26
2018-12-25T10:33:52.830Z,61.00
2018-12-25T10:36:41.695Z,60.92
2018-12-25T10:39:30.574Z,60.68
2018-12-25T10:42:19.393Z,59.61
2018-12-25T10:45:08.318Z,60.39
2018-12-25T10:47:57.144Z,59.56
2018-12-25T10:50:45.987Z,60.31
2018-12-25T10:53:34.838Z,59.77
2018-12-25T10:56:23.791Z,59.22
2018-12-25T10:59:12.694Z,58.83
2018-12-25T11:02:01.590Z,58.06
2018-12-25T11:04:50.447Z,58.28
2018-12-25T11:07:39.383Z,58.23
2018-12-25T11:10:28.200Z,58.19
2018-12-25T11:13:17.120Z,57.97
2018-12-25T11:16:06.006Z,58.21
2018-12-25T11:18:54.817Z,57.94
2018-12-25T11:21:36.629Z,58.32
2018-12-25T11:24:25.418Z,57.43
2018-12-25T11:27:14.289Z,57.28
2018-12-25T11:30:03.094Z,57.94
2018-12-25T11:32:51.976Z,57.90
2018-12-25T11:35:40.808Z,57.65
2018-12-25T11:38:29.631Z,57.15
2018-12-25T11:41:18.451Z,56.93
2018-12-25T11:44:07.298Z,57.00
2018-12-25T11:46:56.099Z,57.37
2018-12-25T11:49:44.931Z,57.43
2018-12-25T11:52:33.774Z,56.98
2018-12-25T11:55:03.249Z,56.63
2018-12-25T11:57:52.104Z,56.39
2018-12-25T12:00:41.020Z,56.14
2018-12-25T12:03:29.938Z,56.48
2018-12-25T12:06:18.823Z,56.69
2018-12-25T12:09:08.019Z,55.77
2018-12-25T12:11:56.885Z,55.46
2018-12-25T12:14:45.728Z,56.10
2018-12-25T12:17:34.651Z,55.40
2018-12-25T12:20:23.477Z,55.53
2018-12-25T12:23:12.352Z,56.56
2018-12-25T12:26:01.310Z,56.23
2018-12-25T12:28:50.141Z,56.06
2018-12-25T12:31:31.884Z,56.10
2018-12-25T12:34:20.745Z,56.65
2018-12-25T12:37:09.647Z,56.14
2018-12-25T12:39:58.492Z,56.28
2018-12-25T12:42:47.299Z,55.81
2018-12-25T12:45:36.129Z,56.07
2018-12-25T12:48:24.980Z,56.36
2018-12-25T12:51:13.813Z,56.97
2018-12-25T12:54:02.748Z,56.17
2018-12-25T12:56:51.577Z,55.09
2018-12-25T12:59:40.400Z,55.24
2018-12-25T13:02:29.216Z,54.74
2018-12-25T13:05:18.067Z,54.95
2018-12-25T13:08:06.930Z,54.76
2018-12-25T13:10:55.929Z,55.69
2018-12-25T13:13:44.750Z,54.62
2018-12-25T13:16:14.263Z,55.69
2018-12-25T13:19:03.203Z,55.28
2018-12-25T13:21:52.051Z,54.88
2018-12-25T13:24:33.441Z,54.67
2018-12-25T13:27:14.802Z,54.40
2018-12-25T13:33:18.872Z,54.04
2018-12-25T13:36:07.697Z,54.12
2018-12-25T13:38:56.550Z,54.24
2018-12-25T13:41:45.464Z,54.24
2018-12-25T13:44:34.320Z,53.43
2018-12-25T13:47:23.263Z,53.32
2018-12-25T13:50:12.106Z,53.11
2018-12-25T13:53:02.923Z,52.90
2018-12-25T13:55:51.539Z,53.33
2018-12-25T13:58:40.392Z,53.43
2018-12-25T14:01:29.220Z,53.90
2018-12-25T14:04:18.059Z,53.71
2018-12-25T14:07:06.959Z,53.90
2018-12-25T14:09:55.772Z,54.49
2018-12-25T14:12:44.603Z,54.87
2018-12-25T14:15:33.414Z,54.68
2018-12-25T14:18:22.272Z,54.54
2018-12-25T14:21:11.185Z,53.92
2018-12-25T14:24:00.037Z,53.53
2018-12-25T14:26:48.899Z,53.53
2018-12-25T14:29:37.788Z,53.64
2018-12-25T14:32:26.613Z,53.97
2018-12-25T14:35:15.435Z,54.31
2018-12-25T14:38:04.337Z,54.50
2018-12-25T14:40:53.132Z,54.29
2018-12-25T14:43:41.993Z,53.76
2018-12-25T14:46:30.800Z,54.47
2018-12-25T14:49:00.318Z,53.94
2018-12-25T14:51:49.124Z,53.86
2018-12-25T14:54:37.988Z,53.88
2018-12-25T14:57:26.802Z,54.52
2018-12-25T15:00:15.717Z,54.56
2018-12-25T15:02:57.200Z,53.81
2018-12-25T15:05:46.016Z,53.87
2018-12-25T15:08:42.224Z,53.25
2018-12-25T15:11:31.046Z,53.43
2018-12-25T15:14:19.911Z,53.87
2018-12-25T15:17:08.721Z,54.54
2018-12-25T15:19:57.567Z,54.08
2018-12-25T15:22:46.361Z,54.27
2018-12-25T15:25:35.299Z,54.20
2018-12-25T15:28:24.098Z,54.78
2018-12-25T15:31:13.081Z,54.99
2018-12-25T15:34:01.853Z,54.73
2018-12-25T15:36:50.730Z,54.96
2018-12-25T15:39:39.530Z,54.52
2018-12-25T15:42:28.448Z,54.71
2018-12-25T15:45:17.259Z,54.58
2018-12-25T15:48:06.099Z,55.00
2018-12-25T15:50:54.921Z,54.76
2018-12-25T15:53:43.762Z,54.56
2018-12-25T15:56:32.605Z,54.60
2018-12-25T15:59:21.421Z,54.39
2018-12-25T16:02:10.266Z,54.67
2018-12-25T16:04:51.977Z,54.16
2018-12-25T16:07:21.537Z,54.71
2018-12-25T16:09:51.006Z,54.55
2018-12-25T16:12:39.845Z,54.79
2018-12-25T16:15:28.670Z,54.34
2018-12-25T16:18:17.506Z,53.71
2018-12-25T16:21:06.344Z,53.89
2018-12-25T16:23:55.214Z,53.74
2018-12-25T16:26:44.067Z,53.70
2018-12-25T16:29:32.913Z,54.02
2018-12-25T16:32:21.735Z,54.04
2018-12-25T16:35:10.649Z,54.24
2018-12-25T16:37:59.457Z,54.69
2018-12-25T16:40:48.312Z,54.37
2018-12-25T16:43:37.172Z,54.88
2018-12-25T16:46:26.046Z,54.15
2018-12-25T16:49:14.875Z,54.67
2018-12-25T16:52:03.773Z,54.86
2018-12-25T16:54:52.626Z,55.60
2018-12-25T16:57:41.555Z,55.19
2018-12-25T17:00:32.175Z,54.74
2018-12-25T17:03:13.943Z,54.87
2018-12-25T17:06:02.799Z,54.67
2018-12-25T17:08:51.660Z,54.15
2018-12-25T17:11:40.500Z,54.57
2018-12-25T17:14:29.335Z,55.07
2018-12-25T17:17:18.207Z,55.72
2018-12-25T17:20:28.000Z,55.95
2018-12-25T17:23:16.886Z,56.95
2018-12-25T17:26:05.710Z,57.29
2018-12-25T17:28:54.559Z,57.27
2018-12-25T17:31:43.359Z,56.68
2018-12-25T17:34:25.011Z,57.17
2018-12-25T17:37:13.860Z,56.81
2018-12-25T17:40:02.386Z,56.99
2018-12-25T17:42:44.453Z,57.33
2018-12-25T17:45:33.325Z,57.69
2018-12-25T17:48:22.180Z,57.37
2018-12-25T17:51:10.979Z,58.42
2018-12-25T17:53:59.847Z,58.40
2018-12-25T17:56:48.752Z,59.06
2018-12-25T17:59:37.613Z,58.60
2018-12-25T18:02:07.137Z,59.15
2018-12-25T18:04:55.968Z,58.72
2018-12-25T18:07:44.814Z,58.82
2018-12-25T18:10:33.685Z,59.67
2018-12-25T18:13:22.524Z,59.62
2018-12-25T18:16:11.361Z,59.33
2018-12-25T18:19:00.200Z,59.47
2018-12-25T18:21:49.034Z,58.65
2018-12-25T18:24:37.884Z,58.48
2018-12-25T18:27:26.756Z,59.07
2018-12-25T18:30:15.620Z,60.08
2018-12-25T18:33:04.427Z,59.84
2018-12-25T18:35:46.199Z,59.40
2018-12-25T18:38:35.035Z,59.43
2018-12-25T18:41:23.949Z,60.17
2018-12-25T18:44:12.751Z,59.77
2018-12-25T18:47:01.586Z,60.25
2018-12-25T18:49:50.500Z,59.98
2018-12-25T18:52:39.335Z,60.19
2018-12-25T18:55:08.855Z,59.47
2018-12-25T18:57:57.783Z,59.86
2018-12-25T19:00:46.583Z,59.85
2018-12-25T19:03:35.671Z,59.95
2018-12-25T19:06:17.413Z,60.32
2018-12-25T19:09:27.142Z,60.11
2018-12-25T19:12:15.967Z,60.02
2018-12-25T19:15:25.691Z,60.20
2018-12-25T19:18:14.523Z,60.37
2018-12-25T19:21:03.424Z,61.12
2018-12-25T19:27:08.185Z,60.99
2018-12-25T19:29:56.999Z,61.10
2018-12-25T19:32:45.862Z,60.86
2018-12-25T19:35:34.762Z,60.95
2018-12-25T19:38:23.711Z,61.01
2018-12-25T19:41:12.487Z,61.31
2018-12-25T19:44:01.390Z,61.51
2018-12-25T19:46:50.271Z,61.80
2018-12-25T19:49:39.107Z,61.42
2018-12-25T19:52:27.969Z,61.34
2018-12-25T19:55:16.970Z,61.46
2018-12-25T19:57:58.380Z,61.36
2018-12-25T20:00:28.048Z,61.28
2018-12-25T20:03:17.024Z,61.47
2018-12-25T20:06:26.744Z,61.46
2018-12-25T20:09:54.291Z,61.60
2018-12-25T20:13:21.830Z,61.65
2018-12-25T20:16:49.348Z,61.48
2018-12-25T20:19:59.165Z,61.48
2018-12-25T20:23:08.935Z,61.33
2018-12-25T20:26:36.488Z,61.50
2018-12-25T20:30:04.051Z,61.37
2018-12-25T20:33:31.543Z,61.56
2018-12-25T20:36:32.807Z,61.67
2018-12-25T20:40:00.328Z,62.00
2018-12-25T20:43:27.854Z,61.91
2018-12-25T20:46:37.677Z,61.83
2018-12-25T20:53:55.659Z,61.94
2018-12-25T20:56:39.279Z,62.04
2018-12-25T21:00:06.908Z,62.47
2018-12-25T21:03:34.518Z,62.64
2018-12-25T21:07:02.145Z,62.75
2018-12-25T21:10:29.702Z,62.58
2018-12-25T21:13:39.497Z,62.74
2018-12-25T21:16:49.375Z,63.06
2018-12-25T21:19:59.208Z,63.11
2018-12-25T21:23:26.748Z,63.15
2018-12-25T21:26:54.287Z,63.08
2018-12-25T21:29:43.197Z,63.38
2018-12-25T21:32:53.401Z,63.38
2018-12-25T21:35:34.759Z,63.58
2018-12-25T21:38:44.584Z,63.53
2018-12-25T21:41:33.490Z,63.85
2018-12-25T21:44:13.841Z,63.88
2018-12-25T21:47:02.773Z,63.95
2018-12-25T21:49:52.447Z,64.04
2018-12-25T21:52:41.322Z,64.14
2018-12-25T21:55:30.400Z,64.15
2018-12-25T21:58:19.291Z,64.22
2018-12-25T22:01:08.249Z,64.24
2018-12-25T22:03:57.111Z,64.35
2018-12-25T22:06:45.967Z,64.43
2018-12-25T22:09:34.806Z,64.60
2018-12-25T22:12:23.650Z,64.56
2018-12-25T22:15:12.497Z,64.70
2018-12-25T22:18:01.319Z,64.58
2018-12-25T22:20:50.150Z,64.72
2018-12-25T22:23:38.963Z,64.87
2018-12-25T22:26:27.813Z,65.20
2018-12-25T22:29:16.637Z,64.76
2018-12-25T22:32:05.546Z,64.82
2018-12-25T22:34:54.351Z,64.96
2018-12-25T22:37:36.331Z,65.05
2018-12-25T22:40:25.164Z,65.22
2018-12-25T22:43:14.035Z,65.32
2018-12-25T22:46:02.927Z,65.39
2018-12-25T22:48:51.854Z,65.48
2018-12-25T22:51:40.765Z,65.50
2018-12-25T22:54:29.557Z,65.44
2018-12-25T22:57:18.411Z,65.59
2018-12-25T23:00:28.187Z,65.64
2018-12-25T23:03:17.084Z,65.59
2018-12-25T23:06:05.975Z,65.66
2018-12-25T23:08:54.814Z,65.85
2018-12-25T23:11:43.728Z,65.76
2018-12-25T23:14:25.305Z,65.79
2018-12-25T23:17:14.156Z,65.75
2018-12-25T23:20:02.992Z,65.82
2018-12-25T23:22:51.852Z,65.84
2018-12-25T23:25:44.546Z,66.01
2018-12-25T23:28:31.230Z,65.83
2018-12-25T23:31:20.214Z,65.88
2018-12-25T23:34:09.064Z,65.92
2018-12-25T23:36:51.255Z,65.97
2018-12-25T23:39:40.118Z,65.98
2018-12-25T23:42:28.967Z,66.12
2018-12-25T23:45:17.785Z,66.08
2018-12-25T23:48:06.728Z,66.19
2018-12-25T23:50:55.577Z,66.24
2018-12-25T23:53:44.419Z,66.16
2018-12-25T23:56:33.336Z,66.22
2018-12-25T23:59:22.172Z,66.41
